Time;durP1;ratioP1;P1;durP2;ratioP2;P2;SDS_P1;SDS_P2;PMS_P1;PMS_P2;Temp;Humidity;BMP_temperature;BMP_pressure;BME280_temperature;BME280_humidity;BME280_pressure;Samples;Min_cycle;Max_cycle;Signal;HPM_P1;HPM_P2
2023/12/15 00:01:59;;;;;;;100.47;39.40;;;6.60;99.90;;;;;;4951275;28;20045;-66
2023/12/15 00:04:25;;;;;;;90.68;38.08;;;5.20;99.90;;;;;;4954382;28;20035;-65
2023/12/15 00:06:51;;;;;;;109.10;39.95;;;6.00;99.90;;;;;;4938423;28;20345;-65
2023/12/15 00:09:17;;;;;;;103.95;39.25;;;5.50;99.90;;;;;;4954602;28;20057;-66
2023/12/15 00:11:43;;;;;;;97.88;40.88;;;5.10;99.90;;;;;;4938101;28;20113;-65
2023/12/15 00:14:09;;;;;;;99.70;40.55;;;5.20;99.90;;;;;;4941997;28;20437;-65
2023/12/15 00:16:34;;;;;;;110.32;40.72;;;6.60;99.90;;;;;;4954654;28;20218;-64
2023/12/15 00:19:00;;;;;;;97.00;40.50;;;6.50;99.90;;;;;;4953941;28;20049;-65
2023/12/15 00:21:26;;;;;;;99.35;41.10;;;5.20;99.90;;;;;;4937618;28;20421;-64
2023/12/15 00:23:51;;;;;;;117.00;45.40;;;5.90;99.90;;;;;;4954647;28;20050;-65
2023/12/15 00:26:17;;;;;;;120.97;45.22;;;5.50;99.90;;;;;;4953543;28;20702;-64
2023/12/15 00:28:43;;;;;;;112.65;45.13;;;5.70;99.90;;;;;;4954001;28;20238;-65
2023/12/15 00:31:08;;;;;;;95.32;40.28;;;5.30;99.90;;;;;;4953750;28;20580;-65
2023/12/15 00:33:34;;;;;;;108.20;41.50;;;6.90;99.90;;;;;;4985923;28;20051;-64
2023/12/15 00:36:00;;;;;;;96.80;42.17;;;6.00;99.90;;;;;;4953398;28;20046;-65
2023/12/15 00:38:26;;;;;;;115.63;43.30;;;6.50;99.90;;;;;;4953990;28;20042;-65
2023/12/15 00:40:51;;;;;;;107.28;43.28;;;6.50;99.90;;;;;;4937656;28;20050;-65
2023/12/15 00:43:18;;;;;;;97.78;44.22;;;6.30;99.90;;;;;;4953724;28;20043;-65
2023/12/15 00:45:43;;;;;;;103.93;43.47;;;5.40;99.90;;;;;;4953496;28;20074;-64
2023/12/15 00:48:09;;;;;;;99.10;42.17;;;6.20;99.90;;;;;;4953498;28;20466;-65
2023/12/15 00:50:35;;;;;;;100.20;43.10;;;5.30;99.90;;;;;;4953561;28;20323;-64
2023/12/15 00:53:00;;;;;;;114.10;45.30;;;5.80;99.90;;;;;;4954233;28;20548;-66
2023/12/15 00:55:26;;;;;;;106.07;44.25;;;5.40;99.90;;;;;;4969331;28;20046;-65
2023/12/15 00:57:52;;;;;;;106.82;45.25;;;6.60;99.90;;;;;;4920745;28;20101;-66
2023/12/15 01:00:18;;;;;;;108.00;43.75;;;5.70;99.90;;;;;;4936801;28;20532;-65
2023/12/15 01:02:43;;;;;;;105.18;41.70;;;6.80;99.90;;;;;;4953000;28;20434;-66
2023/12/15 01:05:09;;;;;;;101.90;43.53;;;6.60;99.90;;;;;;4936557;28;20129;-66
2023/12/15 01:07:35;;;;;;;104.90;45.15;;;5.50;99.90;;;;;;4953121;28;20052;-65
2023/12/15 01:10:01;;;;;;;107.43;43.65;;;6.50;99.90;;;;;;4937418;28;20517;-66
2023/12/15 01:12:26;;;;;;;104.18;44.78;;;7.00;99.90;;;;;;4937079;28;20053;-66
2023/12/15 01:14:52;;;;;;;109.60;45.28;;;6.10;99.90;;;;;;4953381;28;20054;-65
2023/12/15 01:17:18;;;;;;;104.28;45.45;;;5.60;99.90;;;;;;4952642;28;20082;-66
2023/12/15 01:19:43;;;;;;;116.82;45.60;;;5.70;99.90;;;;;;4936305;28;20050;-66
2023/12/15 01:22:09;;;;;;;99.13;42.80;;;6.60;99.90;;;;;;4952867;28;20051;-66
2023/12/15 01:24:35;;;;;;;110.97;47.97;;;6.10;99.90;;;;;;4953487;28;20071;-66
2023/12/15 01:27:00;;;;;;;108.72;45.80;;;6.40;99.90;;;;;;4953011;28;21896;-66
2023/12/15 01:29:26;;;;;;;111.20;47.72;;;7.20;99.90;;;;;;4931833;28;20047;-65
2023/12/15 01:31:52;;;;;;;108.70;46.97;;;7.00;99.90;;;;;;4952062;28;20066;-66
2023/12/15 01:34:17;;;;;;;111.30;47.20;;;6.40;99.90;;;;;;4952300;28;20713;-66
2023/12/15 01:36:43;;;;;;;110.88;45.60;;;6.20;99.90;;;;;;4936336;28;20332;-66
2023/12/15 01:39:09;;;;;;;119.72;50.20;;;6.60;99.90;;;;;;4935714;28;20402;-65
2023/12/15 01:41:34;;;;;;;101.10;43.60;;;6.00;99.90;;;;;;4920353;28;20085;-66
2023/12/15 01:44:00;;;;;;;121.53;49.25;;;5.80;99.90;;;;;;4935737;28;20043;-66
2023/12/15 01:46:26;;;;;;;112.05;45.40;;;7.40;99.90;;;;;;4920606;28;20042;-66
2023/12/15 01:48:52;;;;;;;109.07;48.25;;;6.50;99.90;;;;;;4952804;28;20117;-66
2023/12/15 01:51:18;;;;;;;113.97;47.30;;;7.40;99.90;;;;;;4953209;28;20043;-65
2023/12/15 01:53:44;;;;;;;126.93;51.83;;;7.30;99.90;;;;;;4952219;28;20061;-66
2023/12/15 01:56:10;;;;;;;110.40;46.47;;;6.40;99.90;;;;;;4952411;28;20042;-66
2023/12/15 01:58:36;;;;;;;119.97;47.92;;;6.70;99.90;;;;;;4953663;28;20194;-65
2023/12/15 02:01:01;;;;;;;116.38;47.53;;;7.60;99.90;;;;;;4951179;28;20058;-66
2023/12/15 02:03:27;;;;;;;107.07;46.55;;;5.80;99.90;;;;;;4935865;28;20586;-65
2023/12/15 02:05:53;;;;;;;106.97;44.17;;;7.40;99.90;;;;;;4952026;28;20057;-66
2023/12/15 02:08:19;;;;;;;102.13;46.15;;;7.20;99.90;;;;;;4936685;28;20058;-66
2023/12/15 02:10:44;;;;;;;109.47;46.10;;;7.60;99.90;;;;;;4952252;28;20051;-66
2023/12/15 02:13:10;;;;;;;112.30;46.42;;;7.20;99.90;;;;;;4951743;28;20046;-66
2023/12/15 02:15:36;;;;;;;111.13;46.10;;;7.40;99.90;;;;;;4951517;28;20046;-66
2023/12/15 02:18:02;;;;;;;100.28;43.05;;;6.30;99.90;;;;;;4935413;28;20118;-65
2023/12/15 02:20:28;;;;;;;107.72;42.72;;;6.10;99.90;;;;;;4951082;28;20596;-66
2023/12/15 02:22:57;;;;;;;111.35;46.30;;;7.30;99.90;;;;;;4951375;28;20046;-66
2023/12/15 02:25:23;;;;;;;119.55;47.13;;;7.60;99.90;;;;;;4951056;28;20039;-66
2023/12/15 02:27:48;;;;;;;139.95;49.92;;;7.00;99.90;;;;;;4919444;28;20405;-66
2023/12/15 02:30:14;;;;;;;122.03;45.90;;;6.50;99.90;;;;;;4951760;28;20108;-66
2023/12/15 02:32:40;;;;;;;143.10;50.38;;;7.80;99.90;;;;;;4951595;28;20046;-66
2023/12/15 02:35:05;;;;;;;124.60;47.00;;;7.90;99.90;;;;;;4934661;28;20256;-66
2023/12/15 02:37:31;;;;;;;147.80;50.92;;;7.60;99.90;;;;;;4951026;28;20042;-66
2023/12/15 02:39:58;;;;;;;138.75;48.33;;;7.50;99.90;;;;;;4935533;28;20046;-65
2023/12/15 02:42:23;;;;;;;151.10;50.83;;;6.90;99.90;;;;;;4951005;28;20042;-66
2023/12/15 02:44:49;;;;;;;158.35;51.13;;;7.90;99.90;;;;;;4951507;28;20050;-66
2023/12/15 02:47:15;;;;;;;152.63;48.55;;;6.40;99.90;;;;;;4934644;28;20595;-65
2023/12/15 02:49:41;;;;;;;165.40;52.10;;;8.00;99.90;;;;;;4934855;28;20050;-65
2023/12/15 02:52:07;;;;;;;183.40;54.25;;;7.70;99.90;;;;;;4940752;28;20043;-65
2023/12/15 02:54:34;;;;;;;154.88;48.45;;;6.30;99.90;;;;;;4952789;28;20070;-66
2023/12/15 02:57:00;;;;;;;119.22;42.70;;;6.70;99.90;;;;;;4952417;28;20042;-66
2023/12/15 02:59:26;;;;;;;116.28;41.08;;;7.90;99.90;;;;;;4934714;28;20050;-66
2023/12/15 03:01:51;;;;;;;109.93;40.20;;;7.20;99.90;;;;;;4950406;28;20123;-65
2023/12/15 03:04:18;;;;;;;105.38;39.60;;;6.00;99.90;;;;;;4934427;28;20279;-66
2023/12/15 03:06:44;;;;;;;114.13;42.85;;;6.80;99.90;;;;;;4950808;28;20540;-66
2023/12/15 03:09:11;;;;;;;136.95;44.13;;;6.90;99.90;;;;;;4950761;28;20237;-65
2023/12/15 03:11:37;;;;;;;135.68;44.08;;;6.10;99.90;;;;;;4935235;28;20046;-66
2023/12/15 03:14:03;;;;;;;149.40;47.35;;;6.20;99.90;;;;;;4951767;28;20058;-65
2023/12/15 03:16:28;;;;;;;155.20;49.83;;;6.80;99.90;;;;;;4950548;28;20038;-65
2023/12/15 03:18:54;;;;;;;134.55;45.00;;;8.00;99.90;;;;;;4950335;28;20046;-65
2023/12/15 03:21:20;;;;;;;135.98;47.03;;;7.80;99.90;;;;;;4934080;28;20202;-65
2023/12/15 03:23:45;;;;;;;129.40;43.67;;;7.20;99.90;;;;;;4934984;28;20086;-65
2023/12/15 03:26:11;;;;;;;120.85;43.42;;;7.30;99.90;;;;;;4919001;28;20035;-65
2023/12/15 03:28:39;;;;;;;133.55;46.22;;;6.50;99.90;;;;;;4950465;28;20046;-65
2023/12/15 03:31:08;;;;;;;127.07;45.00;;;7.00;99.90;;;;;;4950318;28;20408;-65
2023/12/15 03:33:35;;;;;;;122.95;42.42;;;6.50;99.90;;;;;;4950277;28;20054;-66
2023/12/15 03:36:02;;;;;;;133.40;47.03;;;7.80;99.90;;;;;;4949947;28;20042;-66
2023/12/15 03:38:28;;;;;;;135.50;44.72;;;7.10;99.90;;;;;;4950524;28;20336;-65
2023/12/15 03:40:54;;;;;;;115.53;43.03;;;6.10;99.90;;;;;;4934270;28;20065;-66
2023/12/15 03:43:19;;;;;;;115.45;43.45;;;8.00;99.90;;;;;;4934530;28;20046;-66
2023/12/15 03:45:45;;;;;;;113.38;42.88;;;8.20;99.90;;;;;;4934325;28;20622;-66
2023/12/15 03:48:11;;;;;;;113.95;41.88;;;6.80;99.90;;;;;;4918479;28;20042;-66
2023/12/15 03:50:37;;;;;;;122.22;43.80;;;6.90;99.90;;;;;;4934016;28;20042;-66
2023/12/15 03:53:03;;;;;;;124.97;45.95;;;7.50;99.90;;;;;;4950712;28;20713;-66
2023/12/15 03:55:28;;;;;;;124.38;44.92;;;7.10;99.90;;;;;;4950588;28;20039;-65
2023/12/15 03:57:54;;;;;;;135.80;45.65;;;7.90;99.90;;;;;;4950783;28;20092;-65
2023/12/15 04:00:20;;;;;;;121.03;44.92;;;6.00;99.90;;;;;;4950039;28;20046;-66
2023/12/15 04:02:47;;;;;;;109.03;42.38;;;7.40;99.90;;;;;;4935207;28;20157;-65
2023/12/15 04:05:12;;;;;;;118.03;43.17;;;7.40;99.90;;;;;;4950638;28;20132;-65
2023/12/15 04:07:38;;;;;;;95.05;38.35;;;5.60;99.90;;;;;;4951113;28;20130;-66
2023/12/15 04:10:05;;;;;;;116.70;42.75;;;7.00;99.90;;;;;;4950467;28;20058;-66
2023/12/15 04:12:30;;;;;;;108.97;43.30;;;7.40;99.90;;;;;;4918759;28;20069;-65
2023/12/15 04:14:56;;;;;;;116.72;43.95;;;6.20;99.90;;;;;;4950281;28;20643;-66
2023/12/15 04:17:22;;;;;;;113.32;44.53;;;6.90;99.90;;;;;;4950532;28;20130;-65
2023/12/15 04:19:48;;;;;;;119.13;45.58;;;7.50;99.90;;;;;;4949504;28;20051;-67
2023/12/15 04:22:13;;;;;;;111.53;42.00;;;7.30;99.90;;;;;;4934373;28;20082;-66
2023/12/15 04:24:40;;;;;;;125.10;45.47;;;6.10;99.90;;;;;;4950566;28;20319;-66
2023/12/15 04:27:05;;;;;;;115.50;45.35;;;6.40;99.90;;;;;;4950030;28;20049;-65
2023/12/15 04:29:31;;;;;;;114.72;44.30;;;5.40;99.90;;;;;;4918045;28;20251;-65
2023/12/15 04:31:57;;;;;;;110.93;42.47;;;6.60;99.90;;;;;;4933119;28;20137;-66
2023/12/15 04:34:23;;;;;;;125.97;46.13;;;5.50;99.90;;;;;;4934064;28;20038;-65
2023/12/15 04:36:49;;;;;;;130.68;50.33;;;5.60;99.90;;;;;;4934020;28;20385;-66
2023/12/15 04:39:15;;;;;;;136.25;48.45;;;6.10;99.90;;;;;;4954257;28;20077;-65
2023/12/15 04:41:41;;;;;;;151.50;49.53;;;7.30;99.90;;;;;;4933738;28;20522;-65
2023/12/15 04:44:06;;;;;;;130.98;49.03;;;6.40;99.90;;;;;;4950149;28;20117;-66
2023/12/15 04:46:32;;;;;;;146.95;49.65;;;6.00;99.90;;;;;;4917579;28;20885;-65
2023/12/15 04:49:01;;;;;;;116.45;46.42;;;5.00;99.90;;;;;;4939500;28;20222;-66
2023/12/15 04:51:27;;;;;;;124.40;48.55;;;6.60;99.90;;;;;;4937009;28;20038;-66
2023/12/15 04:53:53;;;;;;;129.18;47.47;;;6.70;99.90;;;;;;4937449;28;20046;-66
2023/12/15 04:56:19;;;;;;;150.45;50.85;;;7.00;99.90;;;;;;4936470;28;20062;-65
2023/12/15 04:58:45;;;;;;;153.00;52.60;;;5.10;99.90;;;;;;4952912;28;20418;-65
2023/12/15 05:01:15;;;;;;;122.93;47.05;;;5.20;99.90;;;;;;4952989;28;20149;-65
2023/12/15 05:03:42;;;;;;;113.82;44.22;;;6.20;99.90;;;;;;4953268;28;20145;-66
2023/12/15 05:06:21;;;;;;;127.70;49.08;;;6.30;99.90;;;;;;4952949;28;20034;-65
2023/12/15 05:08:48;;;;;;;130.02;47.13;;;5.50;99.90;;;;;;4969142;28;20049;-66
2023/12/15 05:11:14;;;;;;;124.40;47.28;;;5.90;99.90;;;;;;4936546;28;20487;-65
2023/12/15 05:13:40;;;;;;;123.72;44.65;;;5.30;99.90;;;;;;4952652;28;20043;-65
2023/12/15 05:16:07;;;;;;;135.63;46.58;;;6.10;99.90;;;;;;4953110;28;20105;-66
2023/12/15 05:18:33;;;;;;;108.65;42.15;;;4.90;99.90;;;;;;4954129;28;20601;-65
2023/12/15 05:20:59;;;;;;;112.82;42.25;;;5.80;99.90;;;;;;4936293;28;20513;-66
2023/12/15 05:23:25;;;;;;;111.57;43.40;;;6.00;99.90;;;;;;4952634;28;20078;-65
2023/12/15 05:25:51;;;;;;;119.07;41.90;;;6.50;99.90;;;;;;4952094;28;20138;-65
2023/12/15 05:28:17;;;;;;;104.38;39.53;;;6.30;99.90;;;;;;4951997;28;20034;-65
2023/12/15 05:30:42;;;;;;;94.30;39.92;;;5.10;99.90;;;;;;4952559;28;20057;-65
2023/12/15 05:33:08;;;;;;;107.10;39.55;;;5.30;99.90;;;;;;4920508;28;20294;-65
2023/12/15 05:35:35;;;;;;;98.18;39.13;;;7.20;99.90;;;;;;4952879;28;20054;-65
2023/12/15 05:38:02;;;;;;;97.18;37.22;;;6.60;99.90;;;;;;4951832;28;20053;-66
2023/12/15 05:40:28;;;;;;;88.47;34.67;;;7.10;99.90;;;;;;4953336;28;20587;-66
2023/12/15 05:42:53;;;;;;;83.63;35.90;;;7.00;99.90;;;;;;4936212;28;20046;-65
2023/12/15 05:45:19;;;;;;;93.60;34.63;;;5.70;99.90;;;;;;4952009;28;20452;-66
2023/12/15 05:47:45;;;;;;;93.93;34.15;;;5.10;99.90;;;;;;4936215;28;20046;-65
2023/12/15 05:50:11;;;;;;;78.20;31.27;;;7.10;99.90;;;;;;4936450;28;20042;-66
2023/12/15 05:52:37;;;;;;;81.25;32.28;;;7.20;99.90;;;;;;4951663;28;20541;-65
2023/12/15 05:55:03;;;;;;;87.90;31.92;;;7.20;99.90;;;;;;4953364;28;20133;-65
2023/12/15 05:57:29;;;;;;;90.88;34.47;;;7.30;99.90;;;;;;4951010;28;20490;-65
2023/12/15 05:59:55;;;;;;;88.82;34.28;;;7.20;99.90;;;;;;4950441;28;20395;-65
2023/12/15 06:02:20;;;;;;;79.53;30.48;;;5.20;99.90;;;;;;4935523;28;20612;-66
2023/12/15 06:04:46;;;;;;;87.22;31.48;;;7.20;99.90;;;;;;4936263;28;20050;-66
2023/12/15 06:07:15;;;;;;;97.50;33.42;;;5.70;99.90;;;;;;4935186;28;20580;-67
2023/12/15 06:09:42;;;;;;;104.03;34.97;;;5.50;99.90;;;;;;4966596;28;20054;-66
2023/12/15 06:12:09;;;;;;;94.70;33.13;;;5.70;99.90;;;;;;4951331;28;20199;-66
2023/12/15 06:14:38;;;;;;;104.78;33.10;;;7.00;99.90;;;;;;4951564;28;20386;-66
2023/12/15 06:17:08;;;;;;;87.93;31.63;;;6.10;99.90;;;;;;4954689;28;20141;-66
2023/12/15 06:19:38;;;;;;;79.50;29.42;;;5.30;99.90;;;;;;4935200;28;20198;-66
2023/12/15 06:22:04;;;;;;;83.07;30.80;;;6.50;99.90;;;;;;4951145;28;20201;-66
2023/12/15 06:24:30;;;;;;;112.78;34.35;;;5.20;99.90;;;;;;4951395;28;20506;-66
2023/12/15 06:26:55;;;;;;;113.75;33.42;;;4.90;99.90;;;;;;4951496;28;20083;-66
2023/12/15 06:29:21;;;;;;;113.35;36.03;;;6.20;99.90;;;;;;4919981;28;20064;-66
2023/12/15 06:31:47;;;;;;;89.68;30.27;;;6.80;99.90;;;;;;4935367;28;20504;-66
2023/12/15 06:34:13;;;;;;;89.75;32.35;;;5.40;99.90;;;;;;4951824;28;20080;-66
2023/12/15 06:36:39;;;;;;;101.88;32.45;;;7.10;99.90;;;;;;4935003;28;20058;-66
2023/12/15 06:39:05;;;;;;;93.20;31.77;;;6.20;99.90;;;;;;4953363;28;20046;-66
2023/12/15 06:41:31;;;;;;;91.28;30.30;;;5.10;99.90;;;;;;4954278;28;20046;-66
2023/12/15 06:43:57;;;;;;;86.57;28.50;;;6.50;99.90;;;;;;4951550;28;20042;-66
2023/12/15 06:46:22;;;;;;;75.45;29.33;;;5.20;99.90;;;;;;4936541;28;20682;-66
2023/12/15 06:48:48;;;;;;;74.35;26.60;;;7.20;99.90;;;;;;4919547;28;20049;-66
2023/12/15 06:51:14;;;;;;;75.47;26.52;;;7.30;99.90;;;;;;4951649;28;20074;-66
2023/12/15 06:53:40;;;;;;;73.55;25.77;;;7.10;99.90;;;;;;4951886;28;20038;-66
2023/12/15 06:56:06;;;;;;;89.95;27.58;;;6.50;99.90;;;;;;4947688;28;20058;-66
2023/12/15 06:58:32;;;;;;;74.75;23.83;;;6.20;99.90;;;;;;4926085;28;20125;-66
2023/12/15 07:00:58;;;;;;;82.20;25.33;;;5.50;99.90;;;;;;4934807;28;20556;-66
2023/12/15 07:03:23;;;;;;;72.22;24.70;;;5.50;99.90;;;;;;4951147;28;20048;-66
2023/12/15 07:05:49;;;;;;;79.63;24.85;;;5.20;99.90;;;;;;4934433;28;20593;-66
2023/12/15 07:08:15;;;;;;;76.38;22.50;;;7.10;99.90;;;;;;4934695;28;20192;-65
2023/12/15 07:10:41;;;;;;;88.60;24.30;;;6.30;99.90;;;;;;4951983;28;20046;-66
2023/12/15 07:13:07;;;;;;;82.72;24.42;;;4.90;99.90;;;;;;4950227;28;20046;-66
2023/12/15 07:15:33;;;;;;;69.38;23.65;;;5.90;99.90;;;;;;4935099;28;20053;-66
2023/12/15 07:18:00;;;;;;;73.50;22.30;;;7.10;99.90;;;;;;4951348;28;20053;-66
2023/12/15 07:20:26;;;;;;;70.85;21.65;;;5.90;99.90;;;;;;4918822;28;20505;-66
2023/12/15 07:22:51;;;;;;;76.10;23.05;;;6.30;99.90;;;;;;4934383;28;20368;-66
2023/12/15 07:25:18;;;;;;;56.72;19.65;;;5.20;99.90;;;;;;4918838;28;20113;-66
2023/12/15 07:27:45;;;;;;;74.88;22.73;;;7.30;99.90;;;;;;4950216;28;20046;-66
2023/12/15 07:30:12;;;;;;;86.22;22.65;;;6.80;99.90;;;;;;4934648;28;20046;-66
2023/12/15 07:32:37;;;;;;;74.22;21.50;;;5.70;99.90;;;;;;4950943;28;20062;-66
2023/12/15 07:35:04;;;;;;;70.05;21.67;;;5.50;99.90;;;;;;4949854;28;20046;-66
2023/12/15 07:37:30;;;;;;;80.90;21.30;;;7.60;99.90;;;;;;4934483;28;20359;-66
2023/12/15 07:39:55;;;;;;;85.45;23.08;;;7.30;99.90;;;;;;4948672;28;20805;-66
2023/12/15 07:42:21;;;;;;;74.55;21.17;;;7.20;99.90;;;;;;4965939;28;20389;-66
2023/12/15 07:44:47;;;;;;;74.95;22.58;;;5.80;99.90;;;;;;4950629;28;20667;-67
2023/12/15 07:47:13;;;;;;;74.53;21.40;;;6.10;99.90;;;;;;4934846;28;20228;-66
2023/12/15 07:49:38;;;;;;;81.07;23.20;;;6.90;99.90;;;;;;4933892;28;20181;-66
2023/12/15 07:52:04;;;;;;;76.05;22.17;;;5.50;99.90;;;;;;4933881;28;20134;-67
2023/12/15 07:54:30;;;;;;;65.70;20.38;;;7.50;99.90;;;;;;4902450;28;20038;-66
2023/12/15 07:56:59;;;;;;;74.53;23.23;;;6.50;99.90;;;;;;4918179;28;20051;-66
2023/12/15 07:59:24;;;;;;;77.88;21.05;;;6.50;99.90;;;;;;4934387;28;20051;-66
2023/12/15 08:01:51;;;;;;;88.00;22.55;;;5.50;99.90;;;;;;4934856;28;20039;-66
2023/12/15 08:04:18;;;;;;;76.68;21.05;;;6.10;99.90;;;;;;4934001;28;20177;-66
2023/12/15 08:06:44;;;;;;;72.82;19.33;;;7.30;99.90;;;;;;4949594;28;20131;-66
2023/12/15 08:09:10;;;;;;;71.07;19.15;;;7.20;99.90;;;;;;4947387;28;20046;-66
2023/12/15 08:11:37;;;;;;;73.38;19.95;;;5.80;99.90;;;;;;4962820;28;20042;-66
2023/12/15 08:14:03;;;;;;;79.10;20.27;;;7.40;99.90;;;;;;4951244;28;20347;-66
2023/12/15 08:16:33;;;;;;;70.28;19.10;;;6.50;99.90;;;;;;4920851;28;20042;-66
2023/12/15 08:18:59;;;;;;;62.10;17.83;;;5.90;99.90;;;;;;4950741;28;20058;-66
2023/12/15 08:21:25;;;;;;;81.10;18.65;;;6.40;99.90;;;;;;4950446;28;20304;-66
2023/12/15 08:23:50;;;;;;;75.50;17.50;;;6.20;99.90;;;;;;4937195;28;20042;-66
2023/12/15 08:26:21;;;;;;;63.97;15.77;;;6.30;99.90;;;;;;4938253;28;20074;-67
2023/12/15 08:28:46;;;;;;;61.47;15.68;;;7.60;99.90;;;;;;4954843;28;20081;-66
2023/12/15 08:31:12;;;;;;;79.03;18.55;;;6.60;99.90;;;;;;4954758;28;20403;-66
2023/12/15 08:33:38;;;;;;;69.57;16.05;;;6.70;99.90;;;;;;4923903;28;20493;-66
2023/12/15 08:36:04;;;;;;;81.20;18.35;;;7.20;99.90;;;;;;4953869;28;20062;-66
2023/12/15 08:38:30;;;;;;;86.80;18.27;;;7.50;99.90;;;;;;4952852;28;20055;-66
2023/12/15 08:40:55;;;;;;;76.28;16.40;;;6.80;99.90;;;;;;4952339;28;20476;-66
2023/12/15 08:43:21;;;;;;;56.20;13.55;;;7.80;99.90;;;;;;4985387;28;20255;-66
2023/12/15 08:45:47;;;;;;;59.38;14.48;;;7.30;99.90;;;;;;4953063;28;20057;-66
2023/12/15 08:48:13;;;;;;;55.80;12.52;;;6.70;99.90;;;;;;4936234;28;20409;-66
2023/12/15 08:50:39;;;;;;;62.53;13.30;;;6.30;99.90;;;;;;4936348;28;20163;-66
2023/12/15 08:53:04;;;;;;;67.93;12.60;;;7.30;99.90;;;;;;4936255;28;20219;-66
2023/12/15 08:55:30;;;;;;;68.70;12.60;;;6.40;99.90;;;;;;4936510;28;20113;-66
2023/12/15 08:57:56;;;;;;;59.92;11.95;;;6.70;99.90;;;;;;4953559;28;20479;-66
2023/12/15 09:00:22;;;;;;;54.78;10.77;;;7.70;99.90;;;;;;4952339;28;20349;-66
2023/12/15 09:02:50;;;;;;;61.53;12.25;;;6.80;99.90;;;;;;4952234;28;20493;-66
2023/12/15 09:05:16;;;;;;;49.97;10.55;;;7.90;99.90;;;;;;4936138;28;20306;-66
2023/12/15 09:07:41;;;;;;;48.90;11.05;;;7.70;99.90;;;;;;4920168;28;20339;-67
2023/12/15 09:10:07;;;;;;;63.15;10.82;;;7.10;99.90;;;;;;4950995;28;20080;-66
2023/12/15 09:12:33;;;;;;;47.92;10.32;;;8.10;99.90;;;;;;4936731;28;21094;-66
2023/12/15 09:14:59;;;;;;;48.20;9.05;;;8.40;99.90;;;;;;4952279;28;20100;-66
2023/12/15 09:17:24;;;;;;;56.20;10.30;;;7.50;99.90;;;;;;4935453;28;20522;-66
2023/12/15 09:19:50;;;;;;;50.45;9.05;;;6.70;99.90;;;;;;4935310;28;20046;-66
2023/12/15 09:22:16;;;;;;;46.72;7.13;;;7.50;99.90;;;;;;4950833;28;20128;-66
2023/12/15 09:24:42;;;;;;;39.85;8.23;;;8.30;99.90;;;;;;4951147;28;20045;-65
2023/12/15 09:27:08;;;;;;;50.13;8.50;;;6.90;99.90;;;;;;4935313;28;20050;-65
2023/12/15 09:29:35;;;;;;;50.40;8.40;;;6.90;99.90;;;;;;4951133;28;20049;-65
2023/12/15 09:32:02;;;;;;;51.47;7.47;;;7.50;99.90;;;;;;4950655;28;20051;-65
2023/12/15 09:34:28;;;;;;;47.35;8.63;;;8.00;99.90;;;;;;4917771;28;20118;-66
2023/12/15 09:36:53;;;;;;;55.92;8.23;;;6.90;99.90;;;;;;4952034;28;20093;-66
2023/12/15 09:39:22;;;;;;;42.08;7.95;;;7.30;99.90;;;;;;4919294;28;20046;-67
2023/12/15 09:41:48;;;;;;;46.42;7.63;;;8.30;99.90;;;;;;4935478;28;20473;-66
2023/12/15 09:44:16;;;;;;;49.22;7.75;;;7.80;99.90;;;;;;4950874;28;20055;-66
2023/12/15 09:46:43;;;;;;;39.90;7.35;;;8.00;99.90;;;;;;4950622;28;20307;-66
2023/12/15 09:49:16;;;;;;;51.05;7.63;;;7.40;99.90;;;;;;4950719;28;20039;-66
2023/12/15 09:51:48;;;;;;;48.63;7.65;;;8.20;99.90;;;;;;4950563;28;20210;-66
2023/12/15 09:54:14;;;;;;;43.40;7.20;;;8.40;99.90;;;;;;4951801;28;20248;-66
2023/12/15 09:56:40;;;;;;;42.28;6.63;;;8.50;99.90;;;;;;4950847;28;20368;-66
2023/12/15 09:59:06;;;;;;;45.00;7.22;;;7.80;99.90;;;;;;4922789;28;20125;-66
2023/12/15 10:01:32;;;;;;;33.92;6.35;;;8.20;99.90;;;;;;4950453;28;20125;-66
2023/12/15 10:03:58;;;;;;;42.80;6.88;;;7.70;99.90;;;;;;4950154;28;20034;-66
2023/12/15 10:06:24;;;;;;;44.70;7.10;;;8.50;99.90;;;;;;4950270;28;20038;-66
2023/12/15 10:08:50;;;;;;;48.88;7.15;;;7.80;99.90;;;;;;4934753;28;20121;-66
2023/12/15 10:11:17;;;;;;;39.08;6.10;;;8.80;99.90;;;;;;4949916;28;20485;-66
2023/12/15 10:13:43;;;;;;;43.97;6.57;;;7.80;99.90;;;;;;4934465;28;20042;-66
2023/12/15 10:16:12;;;;;;;32.28;5.38;;;8.90;99.90;;;;;;4950543;28;20302;-66
2023/12/15 10:18:38;;;;;;;43.03;6.03;;;8.70;99.90;;;;;;4922595;28;20138;-66
2023/12/15 10:21:05;;;;;;;36.78;6.40;;;7.90;99.90;;;;;;4951879;28;20556;-66
2023/12/15 10:23:31;;;;;;;40.97;6.60;;;8.80;99.90;;;;;;4951014;28;20729;-66
2023/12/15 10:26:06;;;;;;;41.90;5.63;;;8.90;99.90;;;;;;4950605;28;20046;-66
2023/12/15 10:28:39;;;;;;;43.35;6.75;;;8.80;99.90;;;;;;4934701;28;20232;-66
2023/12/15 10:31:05;;;;;;;39.30;6.38;;;8.70;99.90;;;;;;4934176;28;20156;-66
2023/12/15 10:33:33;;;;;;;37.08;6.13;;;8.80;99.90;;;;;;4931708;28;20339;-67
2023/12/15 10:36:02;;;;;;;42.95;6.85;;;8.10;99.90;;;;;;4950090;28;20654;-66
2023/12/15 10:38:29;;;;;;;40.75;6.25;;;8.30;99.90;;;;;;4951387;28;20039;-67
2023/12/15 10:40:57;;;;;;;42.30;6.45;;;8.60;99.90;;;;;;4949993;28;20709;-66
2023/12/15 10:43:26;;;;;;;40.45;6.57;;;8.80;99.90;;;;;;4933580;28;20199;-66
2023/12/15 10:45:53;;;;;;;38.28;6.00;;;8.40;99.90;;;;;;4934487;28;20336;-66
2023/12/15 10:48:19;;;;;;;36.85;6.35;;;8.30;99.90;;;;;;4934745;28;20358;-67
2023/12/15 10:50:46;;;;;;;39.88;6.38;;;8.70;99.90;;;;;;4949622;28;20048;-66
2023/12/15 10:53:15;;;;;;;36.00;6.05;;;9.20;99.90;;;;;;4949310;28;20190;-66
2023/12/15 10:55:46;;;;;;;36.92;5.55;;;9.10;99.90;;;;;;4949761;28;20073;-66
2023/12/15 10:58:13;;;;;;;42.47;5.93;;;9.10;99.90;;;;;;4944327;28;20046;-67
2023/12/15 11:00:39;;;;;;;42.80;6.97;;;9.00;99.90;;;;;;4950284;28;20050;-67
2023/12/15 11:03:10;;;;;;;36.13;5.97;;;8.40;99.90;;;;;;4951433;28;20051;-67
2023/12/15 11:05:37;;;;;;;38.50;6.30;;;9.00;99.90;;;;;;4950757;28;20046;-67
2023/12/15 11:08:03;;;;;;;34.40;6.72;;;8.60;99.90;;;;;;4948077;28;20238;-67
2023/12/15 11:10:29;;;;;;;33.28;5.10;;;9.00;99.90;;;;;;4949384;28;20544;-67
2023/12/15 11:12:55;;;;;;;39.72;6.03;;;9.10;99.90;;;;;;4934151;28;20401;-67
2023/12/15 11:15:22;;;;;;;40.10;6.68;;;8.90;99.90;;;;;;4934256;28;20055;-67
2023/12/15 11:17:53;;;;;;;34.72;6.53;;;8.80;99.90;;;;;;4933430;28;20133;-67
2023/12/15 11:20:22;;;;;;;43.35;6.22;;;8.70;99.90;;;;;;4933204;28;20125;-67
2023/12/15 11:22:51;;;;;;;31.73;5.55;;;8.60;99.90;;;;;;4949599;28;20451;-67
2023/12/15 11:25:24;;;;;;;35.45;5.75;;;9.00;99.90;;;;;;4933753;28;20043;-67
2023/12/15 11:28:11;;;;;;;38.13;6.18;;;9.30;99.90;;;;;;4933472;28;20046;-67
2023/12/15 11:30:42;;;;;;;47.90;6.72;;;8.60;99.90;;;;;;4949612;28;20142;-67
2023/12/15 11:33:32;;;;;;;34.15;5.68;;;8.90;99.90;;;;;;4949428;28;20042;-67
2023/12/15 11:36:00;;;;;;;34.00;5.93;;;9.00;99.90;;;;;;4941392;28;20413;-67
2023/12/15 11:38:27;;;;;;;42.58;6.13;;;8.80;99.90;;;;;;4933644;28;20113;-67
2023/12/15 11:40:54;;;;;;;41.05;6.68;;;9.40;99.90;;;;;;4932829;28;20545;-67
2023/12/15 11:43:20;;;;;;;33.58;6.43;;;9.50;99.90;;;;;;4949834;28;20077;-67
2023/12/15 11:45:48;;;;;;;37.10;6.18;;;9.30;99.90;;;;;;4949343;28;20085;-67
2023/12/15 11:48:14;;;;;;;33.97;5.90;;;9.80;99.90;;;;;;4933307;28;20061;-67
2023/12/15 11:50:44;;;;;;;33.90;5.95;;;10.00;99.90;;;;;;4932578;28;20078;-67
2023/12/15 11:53:14;;;;;;;32.25;5.50;;;9.90;99.90;;;;;;4931281;28;20324;-67
2023/12/15 11:55:41;;;;;;;41.47;6.57;;;10.20;99.90;;;;;;4948949;28;20161;-68
2023/12/15 11:58:07;;;;;;;30.73;4.93;;;10.10;99.90;;;;;;4923320;28;20049;-67
2023/12/15 12:00:33;;;;;;;40.50;5.35;;;10.40;99.90;;;;;;4954588;28;20042;-67
2023/12/15 12:02:59;;;;;;;25.45;4.25;;;10.20;99.90;;;;;;4952376;28;20046;-67
2023/12/15 12:05:27;;;;;;;27.13;4.88;;;10.30;99.90;;;;;;4953905;28;20285;-67
2023/12/15 12:07:52;;;;;;;32.08;4.82;;;10.50;99.90;;;;;;4936136;28;20437;-67
2023/12/15 12:10:19;;;;;;;32.55;5.55;;;10.80;99.90;;;;;;4936847;28;20039;-68
2023/12/15 12:12:45;;;;;;;35.83;5.68;;;11.10;99.90;;;;;;4954175;28;20394;-67
2023/12/15 12:15:11;;;;;;;33.92;5.57;;;11.60;99.90;;;;;;4953948;28;20105;-67
2023/12/15 12:17:38;;;;;;;28.40;4.97;;;11.80;99.90;;;;;;4953823;28;20109;-67
2023/12/15 12:20:11;;;;;;;29.88;4.90;;;12.00;99.90;;;;;;4953951;28;20775;-67
2023/12/15 12:22:41;;;;;;;29.75;5.18;;;12.30;99.90;;;;;;4923138;28;20497;-67
2023/12/15 12:25:09;;;;;;;32.35;4.72;;;12.40;99.90;;;;;;4954028;28;20576;-67
2023/12/15 12:27:35;;;;;;;30.27;4.70;;;12.40;99.90;;;;;;4953034;28;20046;-67
2023/12/15 12:30:11;;;;;;;28.73;4.82;;;12.10;99.90;;;;;;4954076;28;20042;-67
2023/12/15 12:32:38;;;;;;;35.65;5.88;;;11.70;99.90;;;;;;4938216;28;20098;-67